Time;durP1;ratioP1;P1;durP2;ratioP2;P2;SDS_P1;SDS_P2;PMS_P1;PMS_P2;Temp;Humidity;BMP_temperature;BMP_pressure;BME280_temperature;BME280_humidity;BME280_pressure;Samples;Min_cycle;Max_cycle;Signal;HPM_P1;HPM_P2
2022/10/08 04:51:07;;;;;;;2.03;1.05;;;;;;;18.53;58.57;101747.63;6392515;22;20016;-83
2022/10/08 09:21:29;;;;;;;3.47;1.13;;;;;;;19.12;56.96;102145.09;6309446;22;20183;-79
2022/10/08 09:24:12;;;;;;;;;;;;;;;;;;;;;
2022/10/08 09:26:45;;;;;;;5.13;1.35;;;;;;;19.15;60.07;102152.06;6392230;22;19990;-80
2022/10/08 09:29:48;;;;;;;4.93;1.23;;;;;;;19.18;60.03;102166.00;6392000;22;19995;-81
2022/10/08 13:44:05;;;;;;;3.63;1.20;;;;;;;18.95;58.83;102345.88;6260817;22;20085;31
2022/10/08 13:46:31;;;;;;;2.72;1.05;;;;;;;18.95;58.71;102342.41;6225742;22;20029;-80
2022/10/08 13:56:42;;;;;;;5.65;1.52;;;;;;;18.78;64.37;102343.13;6324337;22;20006;-82
2022/10/08 13:59:09;;;;;;;8.85;1.42;;;;;;;18.44;64.93;102353.19;6324652;22;20382;-79
2022/10/08 14:01:35;;;;;;;5.78;1.30;;;;;;;18.43;65.35;102359.22;6349485;22;20073;-79
2022/10/08 14:04:10;;;;;;;7.00;1.35;;;;;;;18.41;64.61;102354.88;6356525;22;20342;-81
2022/10/08 14:06:36;;;;;;;8.73;1.98;;;;;;;18.49;67.28;102353.22;6380809;22;19998;-80
2022/10/08 14:09:03;;;;;;;5.30;1.50;;;;;;;18.42;68.25;102361.81;6346225;22;20054;-80
2022/10/08 14:11:29;;;;;;;10.25;1.60;;;;;;;18.33;65.93;102354.75;6345261;22;20056;-79
2022/10/08 14:13:55;;;;;;;7.68;1.83;;;;;;;18.25;65.50;102359.91;6348015;22;20014;-78
2022/10/08 14:16:20;;;;;;;6.80;1.60;;;;;;;18.19;67.16;102361.56;6320540;22;20011;-78
2022/10/08 14:18:45;;;;;;;7.13;1.63;;;;;;;18.12;68.54;102357.13;6375118;22;20517;-78
2022/10/08 14:21:15;;;;;;;6.53;1.80;;;;;;;18.08;68.41;102361.44;6320381;22;20338;-78
2022/10/08 14:23:40;;;;;;;8.45;1.48;;;;;;;18.04;67.79;102359.63;6374209;22;20002;-78
2022/10/08 14:26:11;;;;;;;7.00;1.48;;;;;;;17.99;68.99;102363.94;6375440;22;20456;-78
2022/10/08 14:28:36;;;;;;;5.25;1.48;;;;;;;17.97;68.67;102368.25;6347283;22;20002;-79
2022/10/08 14:31:01;;;;;;;4.80;1.35;;;;;;;17.94;69.21;102371.66;6320161;22;20005;-78
2022/10/08 14:33:27;;;;;;;7.75;1.70;;;;;;;17.91;68.46;102366.41;6346727;22;20006;-78
2022/10/08 14:35:52;;;;;;;4.53;1.48;;;;;;;17.92;69.34;102372.50;6320441;22;20065;-78
2022/10/08 14:38:18;;;;;;;6.18;1.70;;;;;;;17.88;69.95;102379.41;6346592;22;20003;-78
2022/10/08 14:40:44;;;;;;;6.47;1.70;;;;;;;17.85;70.31;102368.94;6346870;22;20089;-78
2022/10/08 14:43:10;;;;;;;7.15;1.83;;;;;;;17.87;70.39;102369.81;6346326;22;20002;-79
2022/10/08 14:45:35;;;;;;;6.35;1.55;;;;;;;17.85;69.87;102382.81;6373998;22;20006;-79
2022/10/08 14:48:01;;;;;;;5.10;1.50;;;;;;;17.85;68.63;102369.78;6374341;22;20004;-78
2022/10/08 14:50:26;;;;;;;4.78;1.50;;;;;;;17.85;70.45;102380.22;6346450;22;20017;-79
2022/10/08 14:52:51;;;;;;;5.40;1.50;;;;;;;17.84;69.97;102377.59;6346428;22;20329;-78
2022/10/08 14:55:17;;;;;;;6.38;1.98;;;;;;;17.85;70.04;102384.56;6294721;22;20056;-78
2022/10/08 14:57:42;;;;;;;7.82;1.70;;;;;;;17.85;68.81;102382.81;6340229;22;20018;-78
2022/10/08 15:00:09;;;;;;;4.68;1.65;;;;;;;17.84;69.96;102390.63;6314141;22;20018;-79
2022/10/08 15:02:34;;;;;;;6.30;1.52;;;;;;;17.85;69.12;102387.16;6314171;22;20003;-79
2022/10/08 15:05:00;;;;;;;6.07;1.42;;;;;;;17.86;70.53;102389.78;6288593;22;20319;-78
2022/10/08 15:07:26;;;;;;;4.57;1.58;;;;;;;17.89;69.48;102396.75;6288985;22;20078;-79
2022/10/08 15:09:52;;;;;;;6.15;1.50;;;;;;;17.85;69.93;102394.97;6314887;22;20017;-78
2022/10/08 15:12:17;;;;;;;7.53;1.70;;;;;;;17.84;69.95;102394.09;6314573;22;20007;-78
2022/10/08 15:14:42;;;;;;;4.85;1.30;;;;;;;17.83;69.82;102392.38;6288737;22;20018;-78
2022/10/08 15:17:08;;;;;;;5.50;1.50;;;;;;;17.85;69.06;102395.84;6288519;22;20427;-78
2022/10/08 15:19:33;;;;;;;5.70;1.50;;;;;;;17.87;70.45;102390.66;6289630;22;20002;-78
2022/10/08 15:21:58;;;;;;;6.10;1.38;;;;;;;17.86;70.31;102392.41;6289075;22;20003;-79
2022/10/08 15:24:24;;;;;;;6.40;1.50;;;;;;;17.84;71.18;102391.50;6267940;22;20011;-77
2022/10/08 15:30:49;;;;;;;5.70;1.50;;;;;;;17.28;75.14;102407.94;6366008;22;20037;-86
2022/10/08 15:33:18;;;;;;;4.57;1.40;;;;;;;17.32;73.71;102402.81;6357895;22;20422;-79
2022/10/08 15:36:14;;;;;;;6.32;1.55;;;;;;;17.30;73.57;102400.19;6327003;22;20015;-81
2022/10/08 15:38:41;;;;;;;9.70;1.70;;;;;;;17.28;74.25;102401.88;6325103;22;20006;-81
2022/10/08 15:41:16;;;;;;;5.15;1.45;;;;;;;17.34;73.69;102403.72;6329158;22;20014;-81
2022/10/08 15:43:44;;;;;;;7.25;1.83;;;;;;;17.33;74.82;102407.16;6350842;22;20002;-81
2022/10/08 15:46:12;;;;;;;6.13;1.52;;;;;;;17.33;74.66;102402.81;6323890;22;20014;-81
2022/10/08 15:48:38;;;;;;;4.85;1.33;;;;;;;17.28;75.14;102400.16;6351184;22;20430;-81
2022/10/08 15:51:06;;;;;;;4.07;1.50;;;;;;;17.32;73.37;102390.69;6322997;22;20014;-80
2022/10/08 15:53:36;;;;;;;6.13;1.45;;;;;;;17.33;74.30;102395.00;6323405;22;20003;-80
2022/10/08 15:56:03;;;;;;;6.28;1.50;;;;;;;17.33;74.63;102395.00;6333135;22;20022;-81
2022/10/08 16:04:58;;;;;;;4.53;1.17;;;;;;;17.33;74.22;102404.56;6396768;22;20013;-82
2022/10/08 16:07:32;;;;;;;4.50;1.60;;;;;;;17.33;74.92;102408.03;6393275;22;20002;-81
2022/10/08 16:09:59;;;;;;;4.97;1.40;;;;;;;17.34;74.60;102411.53;6377256;22;20010;-81
2022/10/08 16:12:25;;;;;;;5.75;1.60;;;;;;;17.33;75.04;102417.56;6359431;22;20055;-81
2022/10/08 16:15:00;;;;;;;6.95;1.50;;;;;;;17.31;74.54;102417.56;6390086;22;20018;-82
2022/10/08 16:17:26;;;;;;;5.03;1.58;;;;;;;17.31;74.61;102416.66;6356581;22;20439;-81
2022/10/08 16:19:52;;;;;;;5.85;1.60;;;;;;;17.33;74.66;102415.81;6330782;22;20064;-80
2022/10/08 16:22:18;;;;;;;4.07;1.30;;;;;;;17.35;74.16;102427.13;6355453;22;20010;-80
2022/10/08 16:24:43;;;;;;;5.90;1.65;;;;;;;17.35;75.73;102431.47;6381765;22;20038;-81
2022/10/08 16:27:10;;;;;;;5.93;1.60;;;;;;;17.34;74.90;102433.22;6355369;22;20040;-81
2022/10/08 16:30:18;;;;;;;5.18;1.40;;;;;;;17.31;75.70;102430.56;6359326;22;20016;-83
2022/10/08 16:46:47;;;;;;;5.53;1.30;;;;;;;17.44;74.79;102448.13;6399289;22;20036;-83
2022/10/08 17:00:57;;;;;;;3.90;1.55;;;;;;;17.46;75.76;102456.84;6178681;23;20096;-79
2022/10/08 17:11:10;;;;;;;7.25;1.58;;;;;;;17.52;74.83;102465.59;6153239;23;20065;-84
2022/10/08 19:02:46;;;;;;;4.72;1.80;;;;;;;17.68;73.35;102572.63;6316566;22;20016;-79
2022/10/08 19:05:15;;;;;;;2.90;1.63;;;;;;;17.67;73.28;102567.38;6340805;22;20018;-78
2022/10/08 20:42:48;;;;;;;5.35;2.03;;;;;;;17.60;72.26;102625.41;6329853;22;20033;-81
2022/10/08 20:45:16;;;;;;;4.55;2.15;;;;;;;17.59;72.06;102629.72;6298584;22;20011;-82
2022/10/08 20:47:57;;;;;;;8.43;1.98;;;;;;;17.58;72.30;102627.97;6330059;22;19999;-82
2022/10/08 20:54:15;;;;;;;4.35;2.03;;;;;;;17.58;72.37;102622.75;6324035;22;20500;-81
2022/10/08 20:56:44;;;;;;;4.20;1.85;;;;;;;17.58;71.84;102625.38;6293598;22;20057;-81
2022/10/08 20:59:15;;;;;;;3.72;1.90;;;;;;;17.55;72.63;102622.72;6297018;22;20011;-82
2022/10/08 21:02:05;;;;;;;3.28;1.83;;;;;;;17.57;72.14;102621.03;6299516;22;19999;-82
2022/10/08 21:04:32;;;;;;;4.65;2.08;;;;;;;17.57;74.28;102620.13;6297048;22;20058;-80
2022/10/08 21:10:12;;;;;;;4.03;1.98;;;;;;;17.42;77.77;102624.22;6358593;22;20452;-81
2022/10/08 21:41:28;;;;;;;6.95;3.35;;;;;;;17.35;81.47;102637.06;6364947;22;20044;-82
2022/10/08 21:48:00;;;;;;;6.25;3.10;;;;;;;17.34;81.30;102633.56;6364722;22;20037;-81
2022/10/08 21:50:55;;;;;;;5.28;2.95;;;;;;;17.34;81.55;102627.50;6356994;22;20009;-81
2022/10/08 21:57:19;;;;;;;7.47;3.40;;;;;;;17.33;81.67;102634.41;6202718;23;20076;-81
2022/10/08 22:00:11;;;;;;;4.88;3.00;;;;;;;17.31;81.29;102630.94;6362310;22;20018;-81
2022/10/08 22:03:14;;;;;;;5.07;3.00;;;;;;;17.32;81.79;102629.19;6363093;22;20006;-81
2022/10/08 22:06:16;;;;;;;7.15;2.75;;;;;;;17.30;81.94;102630.88;6334211;22;20011;-81
2022/10/08 22:08:44;;;;;;;5.90;2.78;;;;;;;17.28;81.45;102631.72;6237936;23;20012;-81
2022/10/08 22:11:51;;;;;;;7.55;2.80;;;;;;;17.31;81.55;102636.13;6341089;22;20010;-81
2022/10/08 22:15:01;;;;;;;6.55;2.80;;;;;;;17.30;81.78;102631.75;6212917;23;20031;-81
2022/10/08 22:21:36;;;;;;;5.00;2.45;;;;;;;17.29;81.67;102632.63;6240283;23;20042;-82
2022/10/08 22:24:22;;;;;;;5.57;2.65;;;;;;;17.27;81.59;102629.09;6093037;23;20058;-82
2022/10/08 22:47:50;;;;;;;4.80;2.40;;;;;;;17.26;81.92;102627.34;6359144;22;20018;-82
2022/10/08 22:50:52;;;;;;;4.32;2.42;;;;;;;17.26;81.73;102628.22;6394461;22;20047;-82
2022/10/08 22:53:41;;;;;;;3.00;2.10;;;;;;;17.25;81.09;102628.19;6326163;22;20011;-82
2022/10/08 22:56:41;;;;;;;4.47;2.13;;;;;;;17.24;81.65;102622.09;6304466;22;20007;-82
2022/10/08 22:59:27;;;;;;;3.97;2.35;;;;;;;17.25;81.92;102625.59;6207262;23;20460;-82
